Flight Track Log - Related Links

Times and Time Zones

All times are in EDT time to prevent confusion due to time zone crossing. See the ACA831 flight status page for this flight to view local times or setup timezone preferences in your user account.

Time Position Orientation Groundspeed Altitude Reporting Facility
EDT Latitude Longitude Course Direction KTS MPH feet Rate Location/Type
Mon 07:13:52 AM 46.2250 6.0850 230° Southwest 182 209 2,200  Level FlightAware ADS-B
Mon 07:14:32 AM 46.2010 6.0500 225° Southwest 189 217 3,700 2,182 Climbing FlightAware ADS-B
Mon 07:14:47 AM 46.1930 6.0390 224° Southwest 189 217 4,200 2,400 Climbing FlightAware ADS-B
Mon 07:15:12 AM 46.1760 6.0140 226° Southwest 191 220 5,300 2,727 Climbing FlightAware ADS-B
Mon 07:15:42 AM 46.1600 5.9850 231° Southwest 186 214 6,700 2,850 Climbing FlightAware ADS-B
Mon 07:15:52 AM 46.1560 5.9700 249° West 189 217 7,200 2,200 Climbing FlightAware ADS-B
Mon 07:16:12 AM 46.1600 5.9430 282° West 212 244 7,800 1,400 Climbing FlightAware ADS-B
Mon 07:16:22 AM 46.1660 5.9310 306° West 239 275 7,900 960 Climbing FlightAware ADS-B
Mon 07:16:37 AM 46.1800 5.9160 323° Northwest 272 313 8,200 1,600 Climbing FlightAware ADS-B
Mon 07:16:52 AM 46.1990 5.9080 344° North 283 326 8,700 1,733 Climbing FlightAware ADS-B
Mon 07:17:22 AM 46.2390 5.8930 345° North 309 356 9,500 2,057 Climbing FlightAware ADS-B
Mon 07:18:02 AM 46.2910 5.8580 335° Northwest 320 368 11,100 2,175 Climbing FlightAware ADS-B
Mon 07:18:42 AM 46.3510 5.8180 335° Northwest 354 407 12,400 1,765 Climbing FlightAware ADS-B
Mon 07:19:27 AM 46.4230 5.7690 335° Northwest 404 465 13,600 2,329 Climbing FlightAware ADS-B
Mon 07:20:07 AM 46.4930 5.7120 331° Northwest 409 471 15,700 2,753 Climbing FlightAware ADS-B
Mon 07:20:52 AM 46.5680 5.6530 332° Northwest 422 486 17,500 2,612 Climbing FlightAware ADS-B
Mon 07:21:32 AM 46.6380 5.5990 332° Northwest 425 489 19,400 2,400 Climbing FlightAware ADS-B
Mon 07:22:17 AM 46.7140 5.5400 332° Northwest 439 505 20,900 2,047 Climbing FlightAware ADS-B
Mon 07:22:57 AM 46.7890 5.4810 332° Northwest 450 518 22,300 1,950 Climbing FlightAware ADS-B
Mon 07:23:37 AM 46.8610 5.4140 328° Northwest 455 524 23,500 1,694 Climbing FlightAware ADS-B
Mon 07:24:22 AM 46.9290 5.3190 316° Northwest 463 533 24,700 1,765 Climbing FlightAware ADS-B
Mon 07:25:02 AM 46.9910 5.2270 315° West 471 542 26,000 2,188 Climbing FlightAware ADS-B
Mon 07:25:47 AM 47.0570 5.1280 314° West 463 533 27,800 1,906 Climbing FlightAware ADS-B
Mon 07:26:27 AM 47.1170 5.0370 314° West 473 544 28,700 1,575 Climbing FlightAware ADS-B
Mon 07:27:07 AM 47.1750 4.9480 314° West 473 544 29,900 1,650 Climbing FlightAware ADS-B
Mon 07:27:47 AM 47.2370 4.8520 314° West 475 547 30,900 1,271 Climbing FlightAware ADS-B
Mon 07:28:32 AM 47.3060 4.7440 313° West 484 557 31,700 776 Climbing FlightAware ADS-B
Mon 07:29:12 AM 47.3680 4.6480 314° West 490 564 32,000 212 Climbing FlightAware ADS-B
Mon 07:29:57 AM 47.4310 4.5510 314° West 482 555 32,000  Level FlightAware ADS-B
Mon 07:30:37 AM 47.4990 4.4460 314° West 476 548 32,000  Level FlightAware ADS-B
Mon 07:31:22 AM 47.5640 4.3450 314° West 474 545 32,000  Level FlightAware ADS-B
Mon 07:32:02 AM 47.6220 4.2540 313° West 475 547 32,000  Level FlightAware ADS-B
Mon 07:32:42 AM 47.6820 4.1610 314° West 475 547 32,000  Level FlightAware ADS-B
Mon 07:33:27 AM 47.7510 4.0540 314° West 473 544 32,000  Level FlightAware ADS-B
Mon 07:34:07 AM 47.8150 3.9540 314° West 471 542 32,000  Level FlightAware ADS-B
Mon 07:34:52 AM 47.8830 3.8460 313° West 469 540 32,000  Level FlightAware ADS-B
Mon 07:35:32 AM 47.9440 3.7500 314° West 468 539 32,000  Level FlightAware ADS-B
Mon 07:36:12 AM 48.0010 3.6590 313° West 465 535 32,000  Level FlightAware ADS-B
Mon 07:36:57 AM 48.0650 3.5570 313° West 462 532 32,000  Level FlightAware ADS-B
Mon 07:37:37 AM 48.1250 3.4610 313° West 459 528 32,000  Level FlightAware ADS-B
Mon 07:38:22 AM 48.1920 3.3540 313° West 457 526 32,000  Level FlightAware ADS-B
Mon 07:39:02 AM 48.2490 3.2610 313° West 456 525 32,000 423 Level FlightAware ADS-B
Mon 07:39:33 AM 48.2943 3.1858 312° West 450 518 32,500 984 Climbing FlightAware ADS-B
Mon 07:40:03 AM 48.3359 3.1179 313° West 440 506 33,000 857 Climbing FlightAware ADS-B
Mon 07:40:36 AM 48.3804 3.0445 312° West 439 505 33,400 532 Climbing FlightAware ADS-B
Mon 07:41:22 AM 48.4270 2.9380 303° West 413 475 33,700 381 Climbing FlightAware ADS-B
Mon 07:41:39 AM 48.4370 2.8820 285° West 407 468 33,800 375 Climbing FlightAware ADS-B
Mon 07:42:10 AM 48.4512 2.7977 284° West 411 473 34,000 190 Climbing FlightAware ADS-B
Mon 07:42:42 AM 48.4640 2.7160 283° West 412 474 34,000  Level FlightAware ADS-B
Mon 07:43:22 AM 48.4834 2.5971 284° West 414 476 34,000  Level FlightAware ADS-B
Mon 07:43:53 AM 48.4969 2.5114 283° West 414 476 34,000  Level FlightAware ADS-B
Mon 07:44:53 AM 48.5239 2.3416 284° West 418 481 34,000  Level FlightAware ADS-B
Mon 07:45:24 AM 48.5376 2.2539 283° West 419 482 34,000  Level FlightAware ADS-B
Mon 07:45:56 AM 48.5518 2.1622 283° West 420 483 34,000 -1,084 Level FlightAware ADS-B
Mon 07:46:47 AM 48.5723 2.0217 283° West 454 522 32,500  Descending FlightAware UK
Mon 07:47:02 AM 48.5790 1.9840 283° West 422 486 34,000  Climbing FlightAware ADS-B
Mon 07:47:17 AM 48.5858 1.9359 283° West 456 525 32,500  Descending FlightAware UK
Mon 07:47:42 AM 48.5970 1.8680 283° West 425 489 34,000 2,500 Climbing FlightAware ADS-B
Mon 07:47:53 AM 48.6038 1.8256 284° West 425 489 34,000  Level FlightAware ADS-B
Mon 07:48:24 AM 48.6167 1.7387 283° West 428 493 34,000 -1,525 Level FlightAware ADS-B
Mon 07:48:52 AM 48.6267 1.6580 283° West 456 525 32,500  Descending FlightAware UK
Mon 07:49:03 AM 48.6335 1.6225 283° West 430 495 34,000  Climbing FlightAware ADS-B
Mon 07:49:28 AM 48.6419 1.5520 283° West 464 534 32,500 -2,093 Descending FlightAware UK
Mon 07:49:46 AM 48.6495 1.4986 282° West 464 534 32,500 3,750 Level FlightAware UK
Mon 07:49:52 AM 48.6520 1.4930 282° West 433 498 34,000  Climbing FlightAware ADS-B
Mon 07:50:28 AM 48.6658 1.3738 282° West 466 536 32,500  Descending FlightAware UK
Mon 07:50:32 AM 48.6660 1.3720 282° West 428 493 34,000  Climbing FlightAware ADS-B
Mon 07:50:52 AM 48.6680 1.3018 282° West 462 532 32,500 -2,368 Descending FlightAware UK
Mon 07:51:10 AM 48.6711 1.2492 275° West 460 529 32,500 4,500 Level FlightAware UK
Mon 07:51:12 AM 48.6740 1.2460 275° West 417 480 34,000  Climbing FlightAware ADS-B
Mon 07:51:28 AM 48.6751 1.1976 275° West 450 518 32,500 -2,647 Descending FlightAware UK
Mon 07:51:46 AM 48.6791 1.1460 277° West 450 518 32,500 3,103 Level FlightAware UK
Mon 07:51:57 AM 48.6840 1.1220 277° West 411 473 34,000  Climbing FlightAware ADS-B
Mon 07:52:22 AM 48.6873 1.0434 277° West 448 516 32,500  Descending FlightAware UK
Mon 07:52:37 AM 48.6930 1.0100 277° West 415 478 34,000  Climbing FlightAware ADS-B
Mon 07:52:52 AM 48.6947 0.9580 277° West 452 520 32,500 -2,308 Descending FlightAware UK
Mon 07:53:16 AM 48.7008 0.8887 278° West 452 520 32,500 3,600 Level FlightAware UK
Mon 07:53:17 AM 48.7030 0.8900 278° West 419 482 34,000  Climbing FlightAware ADS-B
Mon 07:53:52 AM 48.7098 0.7840 278° West 456 525 32,500  Descending FlightAware UK
Mon 07:54:02 AM 48.7140 0.7550 278° West 422 486 34,000  Climbing FlightAware ADS-B
Mon 07:54:28 AM 48.7180 0.6788 278° West 460 529 32,500  Descending FlightAware UK
Mon 07:54:42 AM 48.7230 0.6410 278° West 425 489 34,000  Climbing FlightAware ADS-B
Mon 07:55:04 AM 48.7260 0.5725 278° West 458 527 32,500 -2,250 Descending FlightAware UK
Mon 07:55:22 AM 48.7300 0.5190 276° West 460 529 32,500 5,000 Level FlightAware UK
Mon 07:55:22 AM 48.7320 0.5220 276° West 428 493 34,000  Climbing FlightAware ADS-B
Mon 07:55:40 AM 48.7338 0.4651 276° West 460 529 32,500 -2,500 Descending FlightAware UK
Mon 07:55:58 AM 48.7376 0.4113 276° West 460 529 32,500 3,333 Level FlightAware UK
Mon 07:56:07 AM 48.7410 0.3980 276° West 431 496 34,000  Climbing FlightAware ADS-B
Mon 07:56:33 AM 48.7445 0.3043 276° West 456 525 32,500  Descending FlightAware UK
Mon 07:56:52 AM 48.7500 0.2530 276° West 435 501 34,000  Climbing FlightAware ADS-B
Mon 07:57:09 AM 48.7518 0.1957 276° West 460 529 32,500  Descending FlightAware UK
Mon 07:57:32 AM 48.7590 0.1320 276° West 438 504 34,000  Climbing FlightAware ADS-B
Mon 07:57:51 AM 48.7606 0.0675 276° West 462 532 32,500  Descending FlightAware UK
Mon 07:58:12 AM 48.7670 0.0070 276° West 440 506 34,000  Climbing FlightAware ADS-B
Mon 07:58:39 AM 48.7697 -0.0798 276° West 466 536 32,500  Descending FlightAware UK
Mon 07:58:57 AM 48.7760 -0.1250 276° West 442 509 34,000  Climbing FlightAware ADS-B
Mon 07:59:15 AM 48.7766 -0.1913 276° West 466 536 32,500  Descending FlightAware UK
Mon 07:59:27 AM 48.7810 -0.2120 276° West 440 506 34,000  Climbing FlightAware ADS-B
Mon 07:59:51 AM 48.7728 -0.3012 276° West 466 536 32,500 -2,143 Descending FlightAware UK
Mon 08:00:09 AM 48.7694 -0.3552 265° West 466 536 32,500 2,903 Level FlightAware UK
Mon 08:00:22 AM 48.7710 -0.3890 265° West 435 501 34,000  Climbing FlightAware ADS-B
Mon 08:00:39 AM 48.7632 -0.4464 265° West 464 534 32,500  Descending FlightAware UK
Mon 08:00:57 AM 48.7630 -0.4970 265° West 435 501 34,000  Climbing FlightAware ADS-B
Mon 08:01:21 AM 48.7550 -0.5733 265° West 462 532 32,500 -2,143 Descending FlightAware UK
Mon 08:01:39 AM 48.7515 -0.6270 264° West 464 534 32,500 4,286 Level FlightAware UK
Mon 08:01:42 AM 48.7550 -0.6310 264° West 434 499 34,000  Climbing FlightAware ADS-B
Mon 08:01:57 AM 48.7480 -0.6813 264° West 462 532 32,500  Descending FlightAware UK
Mon 08:02:22 AM 48.7480 -0.7360 264° West 434 499 34,000  Climbing FlightAware ADS-B
Mon 08:02:39 AM 48.7395 -0.8079 264° West 462 532 32,500 -2,571 Descending FlightAware UK
Mon 08:02:57 AM 48.7360 -0.8623 264° West 462 532 32,500 3,214 Level FlightAware UK
Mon 08:03:07 AM 48.7370 -0.8850 264° West 432 497 34,000  Climbing FlightAware ADS-B
Mon 08:03:27 AM 48.7297 -0.9526 264° West 460 529 32,500 -2,368 Descending FlightAware UK
Mon 08:03:45 AM 48.7257 -1.0065 264° West 460 529 32,500 4,500 Level FlightAware UK
Mon 08:03:47 AM 48.7290 -1.0070 264° West 432 497 34,000  Climbing FlightAware ADS-B
Mon 08:04:26 AM 48.7165 -1.1315 264° West 458 527 32,500  Descending FlightAware UK
Mon 08:04:42 AM 48.7190 -1.1410 264° West 432 497 34,000 1,765 Climbing FlightAware ADS-B
Mon 08:05:17 AM 48.7140 -1.2740 267° West 434 499 34,000 -1,452 Level FlightAware ADS-B
Mon 08:05:44 AM 48.7192 -1.3661 267° West 456 525 32,500 -2,000 Descending FlightAware UK
Mon 08:06:02 AM 48.7233 -1.4197 277° West 458 527 32,500  Level FlightAware UK
Mon 08:06:20 AM 48.7268 -1.4739 276° West 458 527 32,500 2,571 Level FlightAware UK
Mon 08:06:37 AM 48.7310 -1.5090 276° West 433 498 34,000  Climbing FlightAware ADS-B
Mon 08:06:56 AM 48.7325 -1.5823 276° West 460 529 32,500 -2,432 Descending FlightAware UK
Mon 08:07:14 AM 48.7353 -1.6371 274° West 460 529 32,500 2,500 Level FlightAware UK
Mon 08:07:32 AM 48.7390 -1.6680 274° West 433 498 34,000 1,429 Climbing FlightAware ADS-B
Mon 08:08:17 AM 48.7470 -1.8100 275° West 434 499 34,000 -1,154 Level FlightAware ADS-B
Mon 08:08:50 AM 48.7530 -1.9274 275° West 458 527 32,500  Descending FlightAware UK
Mon 08:08:52 AM 48.7550 -1.9170 275° West 434 499 34,000  Climbing FlightAware ADS-B
Mon 08:09:08 AM 48.7567 -1.9811 275° West 460 529 32,500 -2,250 Descending FlightAware UK
Mon 08:09:32 AM 48.7615 -2.0540 276° West 458 527 32,500 2,647 Level FlightAware UK
Mon 08:09:42 AM 48.7650 -2.0660 276° West 435 501 34,000  Climbing FlightAware ADS-B
Mon 08:10:20 AM 48.7708 -2.1992 276° West 460 529 32,500 -1,636 Descending FlightAware UK
Mon 08:10:37 AM 48.7742 -2.2533 276° West 460 529 32,500 4,091 Level FlightAware UK
Mon 08:10:42 AM 48.7760 -2.2290 276° West 436 502 34,000  Climbing FlightAware ADS-B
Mon 08:11:02 AM 48.7791 -2.3267 276° West 458 527 32,500 -2,045 Descending FlightAware UK
Mon 08:11:26 AM 48.7838 -2.4000 276° West 458 527 32,500 3,000 Level FlightAware UK
Mon 08:11:32 AM 48.7860 -2.3890 276° West 436 502 34,000  Climbing FlightAware ADS-B
Mon 08:11:49 AM 48.7884 -2.4725 276° West 462 532 32,500  Descending FlightAware UK
Mon 08:12:12 AM 48.7930 -2.5050 276° West 436 502 34,000  Climbing FlightAware ADS-B
Mon 08:12:31 AM 48.7968 -2.5998 276° West 460 529 32,500  Descending FlightAware UK
Mon 08:12:52 AM 48.8010 -2.6220 276° West 435 501 34,000  Climbing FlightAware ADS-B
Mon 08:13:07 AM 48.8036 -2.7093 276° West 462 532 32,500 -2,308 Descending FlightAware UK
Mon 08:13:31 AM 48.8083 -2.7823 276° West 460 529 32,500 2,000 Level FlightAware UK
Mon 08:13:52 AM 48.8130 -2.8150 276° West 435 501 34,000  Climbing FlightAware ADS-B
Mon 08:14:07 AM 48.8149 -2.8917 276° West 462 532 32,500 -2,727 Descending FlightAware UK
Mon 08:14:25 AM 48.8180 -2.9464 275° West 462 532 32,500 3,600 Level FlightAware UK
Mon 08:14:32 AM 48.8190 -2.9210 275° West 435 501 34,000  Climbing FlightAware ADS-B
Mon 08:14:49 AM 48.8221 -3.0187 275° West 460 529 32,500 -2,571 Descending FlightAware UK
Mon 08:15:07 AM 48.8250 -3.0734 275° West 462 532 32,500 3,214 Level FlightAware UK
Mon 08:15:17 AM 48.8270 -3.0620 275° West 434 499 34,000  Climbing FlightAware ADS-B
Mon 08:15:37 AM 48.8299 -3.1640 275° West 460 529 32,500  Descending FlightAware UK
Mon 08:15:57 AM 48.8330 -3.1950 275° West 434 499 34,000  Climbing FlightAware ADS-B
Mon 08:16:31 AM 48.8386 -3.3277 275° West 460 529 32,500  Descending FlightAware UK
Mon 08:16:37 AM 48.8400 -3.3120 275° West 435 501 34,000  Climbing FlightAware ADS-B
Mon 08:16:55 AM 48.8426 -3.4006 275° West 460 529 32,500  Descending FlightAware UK
Mon 08:17:17 AM 48.8460 -3.4180 275° West 435 501 34,000  Climbing FlightAware ADS-B
Mon 08:17:19 AM 48.8464 -3.4737 275° West 460 529 32,500 -3,462 Descending FlightAware UK
Mon 08:17:43 AM 48.8500 -3.5462 275° West 462 532 32,500  Level FlightAware UK
Mon 08:18:01 AM 48.8529 -3.6010 275° West 460 529 32,500 4,737 Level FlightAware UK
Mon 08:18:02 AM 48.8540 -3.5740 275° West 436 502 34,000  Climbing FlightAware ADS-B
Mon 08:18:19 AM 48.8557 -3.6558 275° West 460 529 32,500  Descending FlightAware UK
Mon 08:18:47 AM 48.8600 -3.7020 275° West 436 502 34,000  Climbing FlightAware ADS-B
Mon 08:19:13 AM 48.8643 -3.8205 275° West 462 532 32,500  Descending FlightAware UK
Mon 08:19:17 AM 48.8650 -3.7940 275° West 436 502 34,000  Climbing FlightAware ADS-B
Mon 08:19:49 AM 48.8702 -3.9302 275° West 462 532 32,500  Descending FlightAware UK
Mon 08:20:07 AM 48.8730 -3.9520 275° West 435 501 34,000 1,698 Climbing FlightAware ADS-B
Mon 08:20:42 AM 48.8780 -4.0430 275° West 435 501 34,000 -2,500 Level FlightAware ADS-B
Mon 08:20:43 AM 48.8783 -4.0946 275° West 460 529 32,500 -4,737 Descending FlightAware UK
Mon 08:21:01 AM 48.8810 -4.1493 275° West 460 529 32,500  Level FlightAware UK
Mon 08:21:25 AM 48.8845 -4.2222 274° West 460 529 32,500 3,462 Level FlightAware UK
Mon 08:21:27 AM 48.8840 -4.1910 274° West 434 499 34,000  Climbing FlightAware ADS-B
Mon 08:21:42 AM 48.8870 -4.2762 274° West 460 529 32,500 -2,727 Descending FlightAware UK
Mon 08:22:00 AM 48.8895 -4.3309 274° West 462 532 32,500 3,000 Level FlightAware UK
Mon 08:22:12 AM 48.8910 -4.3230 274° West 434 499 34,000  Climbing FlightAware ADS-B
Mon 08:22:30 AM 48.8938 -4.4221 274° West 462 532 32,500 -1,875 Descending FlightAware UK
Mon 08:23:00 AM 48.8979 -4.5132 274° West 462 532 32,500 2,143 Level FlightAware UK
Mon 08:23:12 AM 48.8990 -4.5090 274° West 434 499 34,000  Climbing FlightAware ADS-B
Mon 08:23:30 AM 48.9017 -4.6044 274° West 460 529 32,500 -2,500 Descending FlightAware UK
Mon 08:23:48 AM 48.9040 -4.6592 274° West 460 529 32,500 4,091 Level FlightAware UK
Mon 08:23:52 AM 48.9040 -4.6270 274° West 433 498 34,000  Climbing FlightAware ADS-B
Mon 08:24:12 AM 48.9072 -4.7320 274° West 460 529 32,500 -2,368 Descending FlightAware UK
Mon 08:24:30 AM 48.9095 -4.7866 274° West 460 529 32,500 4,500 Level FlightAware UK
Mon 08:24:32 AM 48.9100 -4.7580 274° West 432 497 34,000  Climbing FlightAware ADS-B
Mon 08:24:48 AM 48.9119 -4.8412 274° West 460 529 32,500 -2,647 Descending FlightAware UK
Mon 08:25:06 AM 48.9139 -4.8957 273° West 458 527 32,500 3,103 Level FlightAware UK
Mon 08:25:17 AM 48.9150 -4.8850 273° West 432 497 34,000  Climbing FlightAware ADS-B
Mon 08:25:36 AM 48.9174 -4.9865 273° West 460 529 32,500 -2,432 Descending FlightAware UK
Mon 08:25:54 AM 48.9196 -5.0409 274° West 458 527 32,500 4,286 Level FlightAware UK
Mon 08:25:57 AM 48.9210 -5.0360 274° West 432 497 34,000  Climbing FlightAware ADS-B
Mon 08:26:12 AM 48.9218 -5.0948 274° West 460 529 32,500 -2,727 Descending FlightAware UK
Mon 08:26:30 AM 48.9241 -5.1492 274° West 458 527 32,500  Level FlightAware UK
Mon 08:26:48 AM 48.9263 -5.2037 273° West 460 529 32,500  Level FlightAware UK
Mon 08:27:06 AM 48.9285 -5.2582 274° West 460 529 32,500  Level FlightAware UK
Mon 08:27:24 AM 48.9306 -5.3128 273° West 460 529 32,500  Level FlightAware UK
Mon 08:27:42 AM 48.9328 -5.3673 274° West 460 529 32,500  Level FlightAware UK
Mon 08:28:00 AM 48.9349 -5.4219 273° West 460 529 32,500  Level FlightAware UK
Mon 08:28:18 AM 48.9369 -5.4765 273° West 460 529 32,500  Level FlightAware UK
Mon 08:28:36 AM 48.9387 -5.5312 273° West 460 529 32,500  Level FlightAware UK
Mon 08:28:54 AM 48.9406 -5.5859 273° West 460 529 32,500  Level FlightAware UK
Mon 08:29:12 AM 48.9425 -5.6406 273° West 460 529 32,500  Level FlightAware UK
Mon 08:29:30 AM 48.9443 -5.6954 273° West 460 529 32,500  Level FlightAware UK
Mon 08:29:48 AM 48.9461 -5.7501 273° West 460 529 32,500  Level FlightAware UK
Mon 08:30:06 AM 48.9478 -5.8050 273° West 462 532 32,500  Level FlightAware UK
Mon 08:30:24 AM 48.9496 -5.8591 273° West 462 532 32,500  Level FlightAware UK
Mon 08:30:42 AM 48.9515 -5.9139 273° West 462 532 32,500  Level FlightAware UK
Mon 08:31:00 AM 48.9531 -5.9686 273° West 462 532 32,500  Level FlightAware UK
Mon 08:31:18 AM 48.9547 -6.0234 273° West 460 529 32,500 4,091 Level FlightAware UK
Mon 08:31:22 AM 48.9550 -6.0250 273° West 434 499 34,000  Climbing FlightAware ADS-B
Mon 08:31:42 AM 48.9569 -6.0965 273° West 460 529 32,500 -2,368 Descending FlightAware UK
Mon 08:32:00 AM 48.9585 -6.1512 273° West 460 529 32,500  Level FlightAware UK
Mon 08:32:18 AM 48.9601 -6.2060 273° West 460 529 32,500  Level FlightAware UK
Mon 08:32:36 AM 48.9617 -6.2607 273° West 460 529 32,500  Level FlightAware UK
Mon 08:32:54 AM 48.9633 -6.3155 273° West 460 529 32,500  Level FlightAware UK
Mon 08:33:12 AM 48.9650 -6.3702 273° West 460 529 32,500  Level FlightAware UK
Mon 08:33:30 AM 48.9667 -6.4249 273° West 460 529 32,500  Level FlightAware UK
Mon 08:33:48 AM 48.9682 -6.4798 272° West 460 529 32,500  Level FlightAware UK
Mon 08:34:06 AM 48.9697 -6.5346 272° West 460 529 32,500  Level FlightAware UK
Mon 08:34:24 AM 48.9746 -6.5888 278° West 460 529 32,500  Level FlightAware UK
Mon 08:34:42 AM 48.9850 -6.6415 287° West 460 529 32,500  Level FlightAware UK
Mon 08:35:00 AM 48.9944 -6.6949 285° West 460 529 32,500  Level FlightAware UK
Mon 08:35:18 AM 49.0038 -6.7480 285° West 460 529 32,500  Level FlightAware UK
Mon 08:35:36 AM 49.0125 -6.8012 284° West 460 529 32,500  Level FlightAware UK
Mon 08:35:54 AM 49.0204 -6.8546 283° West 460 529 32,500  Level FlightAware UK
Mon 08:36:12 AM 49.0280 -6.9083 282° West 460 529 32,500  Level FlightAware UK
Mon 08:36:30 AM 49.0352 -6.9617 282° West 458 527 32,500  Level FlightAware UK
Mon 08:36:48 AM 49.0424 -7.0156 282° West 458 527 32,500  Level FlightAware UK
Mon 08:37:06 AM 49.0497 -7.0695 282° West 458 527 32,500  Level FlightAware UK
Mon 08:37:24 AM 49.0571 -7.1234 282° West 458 527 32,500  Level FlightAware UK
Mon 08:37:42 AM 49.0644 -7.1773 282° West 460 529 32,500  Level FlightAware UK
Mon 08:38:00 AM 49.0720 -7.2312 282° West 460 529 32,500  Level FlightAware UK
Mon 08:38:18 AM 49.0799 -7.2850 283° West 460 529 32,500 4,091 Level FlightAware UK
Mon 08:38:22 AM 49.0800 -7.2810 283° West 436 502 34,000  Climbing FlightAware ADS-B
Mon 08:38:42 AM 49.0915 -7.3563 283° West 460 529 32,500 -2,368 Descending FlightAware UK
Mon 08:39:00 AM 49.1003 -7.4098 284° West 460 529 32,500 4,500 Level FlightAware UK
Mon 08:39:02 AM 49.0990 -7.4000 284° West 435 501 34,000  Climbing FlightAware ADS-B
Mon 08:39:18 AM 49.1088 -7.4634 284° West 460 529 32,500 -2,647 Descending FlightAware UK
Mon 08:39:36 AM 49.1171 -7.5171 283° West 460 529 32,500 3,750 Level FlightAware UK
Mon 08:39:42 AM 49.1160 -7.5130 283° West 435 501 34,000  Climbing FlightAware ADS-B
Mon 08:40:00 AM 49.1278 -7.5886 283° West 460 529 32,500 -2,500 Descending FlightAware UK
Mon 08:40:18 AM 49.1359 -7.6423 283° West 460 529 32,500 3,333 Level FlightAware UK
Mon 08:40:27 AM 49.1360 -7.6460 283° West 435 501 34,000  Climbing FlightAware ADS-B
Mon 08:40:42 AM 49.1465 -7.7140 283° West 460 529 32,500 -2,727 Descending FlightAware UK
Mon 08:41:00 AM 49.1545 -7.7677 283° West 460 529 32,500 3,600 Level FlightAware UK
Mon 08:41:07 AM 49.1560 -7.7770 283° West 436 502 34,000  Climbing FlightAware ADS-B
Mon 08:41:24 AM 49.1653 -7.8394 283° West 460 529 32,500 -2,571 Descending FlightAware UK
Mon 08:41:42 AM 49.1736 -7.8930 283° West 460 529 32,500 3,214 Level FlightAware UK
Mon 08:41:52 AM 49.1770 -7.9150 283° West 436 502 34,000  Climbing FlightAware ADS-B
Mon 08:42:12 AM 49.1874 -7.9825 283° West 458 527 32,500 -2,368 Descending FlightAware UK
Mon 08:42:30 AM 49.1956 -8.0363 283° West 458 527 32,500 4,500 Level FlightAware UK
Mon 08:42:32 AM 49.1950 -8.0360 283° West 436 502 34,000  Climbing FlightAware ADS-B
Mon 08:42:48 AM 49.2037 -8.0895 283° West 458 527 32,500 -2,647 Descending FlightAware UK
Mon 08:43:06 AM 49.2118 -8.1433 283° West 458 527 32,500 3,103 Level FlightAware UK
Mon 08:43:17 AM 49.2150 -8.1710 283° West 436 502 34,000  Climbing FlightAware ADS-B
Mon 08:43:36 AM 49.2252 -8.2332 283° West 458 527 32,500  Descending FlightAware UK
Mon 08:43:57 AM 49.2330 -8.2920 283° West 437 503 34,000  Climbing FlightAware ADS-B
Mon 08:44:12 AM 49.2407 -8.3412 283° West 460 529 32,500 -2,727 Descending FlightAware UK
Mon 08:44:30 AM 49.2484 -8.3954 282° West 460 529 32,500 3,600 Level FlightAware UK
Mon 08:44:37 AM 49.2490 -8.4060 282° West 437 503 34,000  Climbing FlightAware ADS-B
Mon 08:44:54 AM 49.2588 -8.4675 282° West 460 529 32,500 -2,571 Descending FlightAware UK
Mon 08:45:12 AM 49.2665 -8.5218 282° West 460 529 32,500 3,913 Level FlightAware UK
Mon 08:45:17 AM 49.2660 -8.5210 282° West 437 503 34,000  Climbing FlightAware ADS-B
Mon 08:45:36 AM 49.2768 -8.5940 282° West 460 529 32,500 -2,432 Descending FlightAware UK
Mon 08:45:54 AM 49.2846 -8.6483 282° West 460 529 32,500 3,462 Level FlightAware UK
Mon 08:46:02 AM 49.2830 -8.6480 282° West 437 503 34,000  Climbing FlightAware ADS-B
Mon 08:46:18 AM 49.2949 -8.7206 282° West 460 529 32,500 -2,647 Descending FlightAware UK
Mon 08:46:36 AM 49.3026 -8.7748 282° West 460 529 32,500 3,750 Level FlightAware UK
Mon 08:46:42 AM 49.2980 -8.7510 282° West 437 503 34,000  Climbing FlightAware ADS-B
Mon 08:47:00 AM 49.3129 -8.8472 282° West 460 529 32,500 -2,500 Descending FlightAware UK
Mon 08:47:18 AM 49.3206 -8.9015 282° West 460 529 32,500 4,091 Level FlightAware UK
Mon 08:47:22 AM 49.3120 -8.8540 282° West 437 503 34,000  Climbing FlightAware ADS-B
Mon 08:47:42 AM 49.3308 -8.9739 282° West 460 529 32,500  Descending FlightAware UK
Mon 08:48:02 AM 49.3260 -8.9570 282° West 437 503 34,000 1,286 Climbing FlightAware ADS-B
Mon 08:48:52 AM 49.3440 -9.0860 282° West 437 503 34,000  Level FlightAware ADS-B
Mon 08:49:32 AM 49.3580 -9.1890 282° West 437 503 34,000  Level FlightAware ADS-B
Mon 08:50:12 AM 49.3720 -9.2920 282° West 437 503 34,000  Level FlightAware ADS-B
Mon 08:50:52 AM 49.3870 -9.3960 283° West 437 503 34,000  Level FlightAware ADS-B
Mon 08:51:32 AM 49.4010 -9.4990 282° West 437 503 34,000  Level FlightAware ADS-B
Mon 08:52:22 AM 49.4190 -9.6280 282° West 437 503 34,000  Level FlightAware ADS-B
Mon 08:53:02 AM 49.4330 -9.7320 282° West 437 503 34,000  Level FlightAware ADS-B
Mon 08:53:42 AM 49.4470 -9.8350 282° West 437 503 34,000  Level FlightAware ADS-B
Mon 08:54:22 AM 49.4620 -9.9380 283° West 437 503 34,000  Level FlightAware ADS-B
Mon 08:55:02 AM 49.4760 -10.0420 282° West 437 503 34,000  Level FlightAware ADS-B
Mon 08:57:00 AM 49.5536 -10.3755 290° West  Level Estimated
Mon 08:58:00 AM 49.5927 -10.5455 290° West  Level Estimated
Mon 08:59:00 AM 49.6316 -10.7157 289° West  Level Estimated
Mon 09:00:00 AM 49.6702 -10.8862 289° West  Level Estimated
Mon 09:01:00 AM 49.7086 -11.0570 289° West  Level Estimated
Mon 09:02:00 AM 49.7467 -11.2281 289° West  Level Estimated
Mon 09:03:00 AM 49.7845 -11.3994 289° West  Level Estimated
Mon 09:04:00 AM 49.8221 -11.5710 289° West  Level Estimated
Mon 09:05:00 AM 49.8595 -11.7429 289° West  Level Estimated
Mon 09:06:00 AM 49.8966 -11.9150 289° West  Level Estimated
Mon 09:07:00 AM 49.9334 -12.0874 288° West  Level Estimated
Mon 09:08:00 AM 49.9700 -12.2600 288° West  Level Estimated
Mon 09:09:00 AM 50.0063 -12.4330 288° West  Level Estimated
Mon 09:10:00 AM 50.0424 -12.6061 288° West  Level Estimated
Mon 09:11:00 AM 50.0782 -12.7796 288° West  Level Estimated
Mon 09:12:00 AM 50.1137 -12.9533 288° West  Level Estimated
Mon 09:13:00 AM 50.1490 -13.1272 288° West  Level Estimated
Mon 09:14:00 AM 50.1841 -13.3014 287° West  Level Estimated
Mon 09:15:00 AM 50.2188 -13.4759 287° West  Level Estimated
Mon 09:16:00 AM 50.2533 -13.6506 287° West  Level Estimated
Mon 09:17:00 AM 50.2876 -13.8256 287° West  Level Estimated
Mon 09:18:00 AM 50.3215 -14.0008 287° West  Level Estimated
Mon 09:19:00 AM 50.3553 -14.1763 287° West  Level Estimated
Mon 09:20:00 AM 50.3887 -14.3520 287° West  Level Estimated
Mon 09:21:00 AM 50.4219 -14.5280 287° West  Level Estimated
Mon 09:22:00 AM 50.4548 -14.7042 286° West  Level Estimated
Mon 09:23:00 AM 50.4875 -14.8806 286° West  Level Estimated
Mon 09:24:00 AM 50.5200 -15.0577 286° West  Level Estimated
Mon 09:25:00 AM 50.5521 -15.2350 286° West  Level Estimated
Mon 09:26:00 AM 50.5841 -15.4126 286° West  Level Estimated
Mon 09:27:00 AM 50.6157 -15.5904 286° West  Level Estimated
Mon 09:28:00 AM 50.6471 -15.7685 286° West  Level Estimated
Mon 09:29:00 AM 50.6782 -15.9467 285° West  Level Estimated
Mon 09:30:00 AM 50.7090 -16.1253 285° West  Level Estimated
Mon 09:31:00 AM 50.7396 -16.3040 285° West  Level Estimated
Mon 09:32:00 AM 50.7699 -16.4830 285° West  Level Estimated
Mon 09:33:00 AM 50.7999 -16.6622 285° West  Level Estimated
Mon 09:34:00 AM 50.8297 -16.8417 285° West  Level Estimated
Mon 09:35:00 AM 50.8591 -17.0213 285° West  Level Estimated
Mon 09:36:00 AM 50.8894 -17.2080 284° West  Level Estimated
Mon 09:37:00 AM 50.9194 -17.3949 284° West  Level Estimated
Mon 09:38:00 AM 50.9491 -17.5821 284° West  Level Estimated
Mon 09:39:00 AM 50.9784 -17.7695 284° West  Level Estimated
Mon 09:40:00 AM 51.0075 -17.9571 284° West  Level Estimated
Mon 09:41:00 AM 51.0363 -18.1450 284° West  Level Estimated
Mon 09:42:00 AM 51.0648 -18.3331 284° West  Level Estimated
Mon 09:43:00 AM 51.0930 -18.5214 283° West  Level Estimated
Mon 09:44:00 AM 51.1208 -18.7100 283° West  Level Estimated
Mon 09:45:00 AM 51.1484 -18.8987 283° West  Level Estimated
Mon 09:46:00 AM 51.1757 -19.0877 283° West  Level Estimated
Mon 09:47:00 AM 51.2026 -19.2770 283° West  Level Estimated
Mon 09:47:00 AM 50.0000 -20.0000 265° West 429 494 34,000  Level ETMS Enhanced Traffic Management System
Mon 09:48:00 AM 51.2293 -19.4664 283° West  Level Estimated
Mon 09:49:00 AM 51.2557 -19.6561 283° West  Level Estimated
Mon 09:50:00 AM 51.2811 -19.8418 282° West  Level Estimated
Mon 09:51:00 AM 51.3063 -20.0277 282° West  Level Estimated
Mon 09:52:00 AM 51.3312 -20.2138 282° West  Level Estimated
Mon 09:53:00 AM 49.9211 -21.2932 264° West 429 494 34,000  Level FlightAware Transoceanic
Mon 09:54:00 AM 49.9086 -21.4776 264° West 429 494 34,000  Level FlightAware Transoceanic
Mon 09:55:00 AM 49.8959 -21.6619 264° West 429 494 34,000  Level FlightAware Transoceanic
Mon 09:56:00 AM 49.8828 -21.8461 264° West 429 494 34,000  Level FlightAware Transoceanic
Mon 09:57:00 AM 49.8695 -22.0301 264° West 429 494 34,000  Level FlightAware Transoceanic
Mon 09:58:00 AM 49.8559 -22.2141 263° West 429 494 34,000  Level FlightAware Transoceanic
Mon 09:59:00 AM 49.8420 -22.3980 263° West 429 494 34,000  Level FlightAware Transoceanic
Mon 10:00:00 AM 49.8278 -22.5818 263° West 429 494 34,000  Level FlightAware Transoceanic
Mon 10:01:00 AM 49.8133 -22.7654 263° West 429 494 34,000  Level FlightAware Transoceanic
Mon 10:02:00 AM 49.7985 -22.9490 263° West 429 494 34,000  Level FlightAware Transoceanic
Mon 10:03:00 AM 49.7835 -23.1324 263° West 429 494 34,000  Level FlightAware Transoceanic
Mon 10:04:00 AM 49.7681 -23.3158 263° West 429 494 34,000  Level FlightAware Transoceanic
Mon 10:05:00 AM 49.7524 -23.4990 262° West 429 494 34,000  Level FlightAware Transoceanic
Mon 10:06:00 AM 49.7365 -23.6821 262° West 429 494 34,000  Level FlightAware Transoceanic
Mon 10:07:00 AM 49.7203 -23.8650 262° West 429 494 34,000  Level FlightAware Transoceanic
Mon 10:08:00 AM 49.7038 -24.0479 262° West 429 494 34,000  Level FlightAware Transoceanic
Mon 10:09:00 AM 49.6870 -24.2306 262° West 429 494 34,000  Level FlightAware Transoceanic
Mon 10:10:00 AM 49.6699 -24.4132 262° West 429 494 34,000  Level FlightAware Transoceanic
Mon 10:11:00 AM 49.6525 -24.5956 262° West 429 494 34,000  Level FlightAware Transoceanic
Mon 10:12:00 AM 49.6349 -24.7780 261° West 429 494 34,000  Level FlightAware Transoceanic
Mon 10:13:00 AM 49.6169 -24.9602 261° West 429 494 34,000  Level FlightAware Transoceanic
Mon 10:14:00 AM 49.5987 -25.1422 261° West 429 494 34,000  Level FlightAware Transoceanic
Mon 10:15:00 AM 49.5802 -25.3242 261° West 429 494 34,000  Level FlightAware Transoceanic
Mon 10:16:00 AM 49.5614 -25.5059 261° West 429 494 34,000  Level FlightAware Transoceanic
Mon 10:17:00 AM 49.5423 -25.6876 261° West 429 494 34,000  Level FlightAware Transoceanic
Mon 10:18:00 AM 49.5229 -25.8691 261° West 429 494 34,000  Level FlightAware Transoceanic
Mon 10:19:00 AM 49.5033 -26.0504 260° West 429 494 34,000  Level FlightAware Transoceanic
Mon 10:20:00 AM 49.4833 -26.2317 260° West 429 494 34,000  Level FlightAware Transoceanic
Mon 10:21:00 AM 49.4631 -26.4127 260° West 429 494 34,000  Level FlightAware Transoceanic
Mon 10:22:00 AM 49.4426 -26.5936 260° West 429 494 34,000  Level FlightAware Transoceanic
Mon 10:23:00 AM 49.4218 -26.7744 260° West 429 494 34,000  Level FlightAware Transoceanic
Mon 10:24:00 AM 49.4007 -26.9550 260° West 429 494 34,000  Level FlightAware Transoceanic
Mon 10:25:00 AM 49.3794 -27.1355 260° West 429 494 34,000  Level FlightAware Transoceanic
Mon 10:26:00 AM 49.3578 -27.3157 259° West 429 494 34,000  Level FlightAware Transoceanic
Mon 10:27:00 AM 49.3359 -27.4959 259° West 429 494 34,000  Level FlightAware Transoceanic
Mon 10:28:00 AM 49.3137 -27.6758 259° West 429 494 34,000  Level FlightAware Transoceanic
Mon 10:29:00 AM 49.2912 -27.8556 259° West 429 494 34,000  Level FlightAware Transoceanic
Mon 10:30:00 AM 49.2685 -28.0353 259° West 429 494 34,000  Level FlightAware Transoceanic
Mon 10:31:00 AM 49.2454 -28.2148 259° West 429 494 34,000  Level FlightAware Transoceanic
Mon 10:32:00 AM 49.2221 -28.3941 259° West 429 494 34,000  Level FlightAware Transoceanic
Mon 10:33:00 AM 49.1986 -28.5732 259° West 429 494 34,000  Level FlightAware Transoceanic
Mon 10:34:00 AM 49.1747 -28.7522 258° West 429 494 34,000  Level FlightAware Transoceanic
Mon 10:35:00 AM 49.1506 -28.9310 258° West 429 494 34,000  Level FlightAware Transoceanic
Mon 10:36:00 AM 49.1262 -29.1096 258° West 429 494 34,000  Level FlightAware Transoceanic
Mon 10:37:00 AM 49.1015 -29.2880 258° West 429 494 34,000  Level FlightAware Transoceanic
Mon 10:38:00 AM 49.0765 -29.4663 258° West 429 494 34,000  Level FlightAware Transoceanic
Mon 10:39:00 AM 49.0513 -29.6444 258° West 429 494 34,000  Level FlightAware Transoceanic
Mon 10:40:00 AM 49.0258 -29.8223 258° West 429 494 34,000  Level FlightAware Transoceanic
Mon 10:41:00 AM 49.0001 -29.9994 258° West  Level FlightAware Approximate
Mon 10:42:00 AM 48.9750 -30.1766 258° West  Level FlightAware Approximate
Mon 10:42:00 AM 49.0000 -30.0000 265° West 446 513 34,000  Level ETMS Enhanced Traffic Management System
Mon 10:43:00 AM 48.9900 -30.1793 265° West  Level FlightAware Approximate
Mon 10:44:00 AM 48.9796 -30.3599 265° West  Level FlightAware Approximate
Mon 10:45:00 AM 48.9689 -30.5404 265° West  Level FlightAware Approximate
Mon 10:46:00 AM 48.9579 -30.7208 265° West  Level FlightAware Approximate
Mon 10:47:00 AM 48.9467 -30.9011 265° West  Level FlightAware Approximate
Mon 10:48:00 AM 48.9197 -31.3164 264° West 446 513 34,000  Level FlightAware Transoceanic
Mon 10:49:00 AM 48.9070 -31.5041 264° West 446 513 34,000  Level FlightAware Transoceanic
Mon 10:50:00 AM 48.8940 -31.6917 264° West 446 513 34,000  Level FlightAware Transoceanic
Mon 10:51:00 AM 48.8807 -31.8792 264° West 446 513 34,000  Level FlightAware Transoceanic
Mon 10:52:00 AM 48.8671 -32.0666 264° West 446 513 34,000  Level FlightAware Transoceanic
Mon 10:53:00 AM 48.8532 -32.2538 263° West 446 513 34,000  Level FlightAware Transoceanic
Mon 10:54:00 AM 48.8390 -32.4410 263° West 446 513 34,000  Level FlightAware Transoceanic
Mon 10:55:00 AM 48.8245 -32.6281 263° West 446 513 34,000  Level FlightAware Transoceanic
Mon 10:56:00 AM 48.8097 -32.8151 263° West 446 513 34,000  Level FlightAware Transoceanic
Mon 10:57:00 AM 48.7945 -33.0019 263° West 446 513 34,000  Level FlightAware Transoceanic
Mon 10:58:00 AM 48.7791 -33.1887 263° West 446 513 34,000  Level FlightAware Transoceanic
Mon 10:59:00 AM 48.7634 -33.3753 263° West 446 513 34,000  Level FlightAware Transoceanic
Mon 11:00:00 AM 48.7474 -33.5618 263° West 446 513 34,000  Level FlightAware Transoceanic
Mon 11:01:00 AM 48.7310 -33.7482 262° West 446 513 34,000  Level FlightAware Transoceanic
Mon 11:02:00 AM 48.7144 -33.9345 262° West 446 513 34,000  Level FlightAware Transoceanic
Mon 11:03:00 AM 48.6975 -34.1207 262° West 446 513 34,000  Level FlightAware Transoceanic
Mon 11:04:00 AM 48.6803 -34.3067 262° West 446 513 34,000  Level FlightAware Transoceanic
Mon 11:05:00 AM 48.6627 -34.4926 262° West 446 513 34,000  Level FlightAware Transoceanic
Mon 11:06:00 AM 48.6449 -34.6783 262° West 446 513 34,000  Level FlightAware Transoceanic
Mon 11:07:00 AM 48.6268 -34.8639 262° West 446 513 34,000  Level FlightAware Transoceanic
Mon 11:08:00 AM 48.6084 -35.0494 261° West 446 513 34,000  Level FlightAware Transoceanic
Mon 11:09:00 AM 48.5896 -35.2348 261° West 446 513 34,000  Level FlightAware Transoceanic
Mon 11:10:00 AM 48.5706 -35.4200 261° West 446 513 34,000  Level FlightAware Transoceanic
Mon 11:11:00 AM 48.5513 -35.6051 261° West 446 513 34,000  Level FlightAware Transoceanic
Mon 11:12:00 AM 48.5317 -35.7900 261° West 446 513 34,000  Level FlightAware Transoceanic
Mon 11:13:00 AM 48.5118 -35.9748 261° West 446 513 34,000  Level FlightAware Transoceanic
Mon 11:14:00 AM 48.4916 -36.1595 261° West 446 513 34,000  Level FlightAware Transoceanic
Mon 11:15:00 AM 48.4711 -36.3440 260° West 446 513 34,000  Level FlightAware Transoceanic
Mon 11:16:00 AM 48.4503 -36.5283 260° West 446 513 34,000  Level FlightAware Transoceanic
Mon 11:17:00 AM 48.4292 -36.7125 260° West 446 513 34,000  Level FlightAware Transoceanic
Mon 11:18:00 AM 48.4079 -36.8966 260° West 446 513 34,000  Level FlightAware Transoceanic
Mon 11:19:00 AM 48.3862 -37.0805 260° West 446 513 34,000  Level FlightAware Transoceanic
Mon 11:20:00 AM 48.3642 -37.2642 260° West 446 513 34,000  Level FlightAware Transoceanic
Mon 11:21:00 AM 48.3420 -37.4478 260° West 446 513 34,000  Level FlightAware Transoceanic
Mon 11:22:00 AM 48.3194 -37.6312 259° West 446 513 34,000  Level FlightAware Transoceanic
Mon 11:23:00 AM 48.2966 -37.8144 259° West 446 513 34,000  Level FlightAware Transoceanic
Mon 11:24:00 AM 48.2735 -37.9975 259° West 446 513 34,000  Level FlightAware Transoceanic
Mon 11:25:00 AM 48.2500 -38.1804 259° West 446 513 34,000  Level FlightAware Transoceanic
Mon 11:26:00 AM 48.2263 -38.3632 259° West 446 513 34,000  Level FlightAware Transoceanic
Mon 11:27:00 AM 48.2023 -38.5457 259° West 446 513 34,000  Level FlightAware Transoceanic
Mon 11:28:00 AM 48.1781 -38.7281 259° West 446 513 34,000  Level FlightAware Transoceanic
Mon 11:29:00 AM 48.1535 -38.9104 259° West 446 513 34,000  Level FlightAware Transoceanic
Mon 11:30:00 AM 48.1286 -39.0924 258° West 446 513 34,000  Level FlightAware Transoceanic
Mon 11:31:00 AM 48.1035 -39.2743 258° West 446 513 34,000  Level FlightAware Transoceanic
Mon 11:32:00 AM 48.0780 -39.4560 258° West 446 513 34,000  Level FlightAware Transoceanic
Mon 11:33:00 AM 48.0523 -39.6375 258° West 446 513 34,000  Level FlightAware Transoceanic
Mon 11:34:00 AM 48.0263 -39.8189 258° West 446 513 34,000  Level FlightAware Transoceanic
Mon 11:35:00 AM 48.0011 -39.9926 258° West  Level FlightAware Approximate
Mon 11:36:00 AM 47.9755 -40.1662 258° West  Level FlightAware Approximate
Mon 11:37:00 AM 47.9901 -40.1620 265° West  Level FlightAware Approximate
Mon 11:37:58 AM 48.0000 -40.0000 265° West 463 533 34,000  Level ETMS Enhanced Traffic Management System
Mon 11:38:00 AM 47.9791 -40.3389 265° West  Level FlightAware Approximate
Mon 11:39:00 AM 47.9678 -40.5158 265° West  Level FlightAware Approximate
Mon 11:40:00 AM 47.9562 -40.6922 264° West  Level FlightAware Approximate
Mon 11:41:00 AM 47.9444 -40.8685 264° West  Level FlightAware Approximate
Mon 11:42:00 AM 47.9323 -41.0448 264° West  Level FlightAware Approximate
Mon 11:43:00 AM 47.9199 -41.2210 264° West  Level FlightAware Approximate
Mon 11:44:00 AM 47.9053 -41.5316 264° West 463 533 34,000  Level FlightAware Transoceanic
Mon 11:45:00 AM 47.8920 -41.7226 264° West 463 533 34,000  Level FlightAware Transoceanic
Mon 11:46:00 AM 47.8784 -41.9136 264° West 463 533 34,000  Level FlightAware Transoceanic
Mon 11:47:00 AM 47.8645 -42.1044 264° West 463 533 34,000  Level FlightAware Transoceanic
Mon 11:48:00 AM 47.8503 -42.2951 264° West 463 533 34,000  Level FlightAware Transoceanic
Mon 11:49:00 AM 47.8357 -42.4857 263° West 463 533 34,000  Level FlightAware Transoceanic
Mon 11:50:00 AM 47.8209 -42.6763 263° West 463 533 34,000  Level FlightAware Transoceanic
Mon 11:51:00 AM 47.8057 -42.8667 263° West 463 533 34,000  Level FlightAware Transoceanic
Mon 11:52:00 AM 47.7902 -43.0570 263° West 463 533 34,000  Level FlightAware Transoceanic
Mon 11:53:00 AM 47.7744 -43.2471 263° West 463 533 34,000  Level FlightAware Transoceanic
Mon 11:54:00 AM 47.7583 -43.4372 263° West 463 533 34,000  Level FlightAware Transoceanic
Mon 11:55:00 AM 47.7419 -43.6272 263° West 463 533 34,000  Level FlightAware Transoceanic
Mon 11:56:00 AM 47.7252 -43.8170 262° West 463 533 34,000  Level FlightAware Transoceanic
Mon 11:57:00 AM 47.7081 -44.0067 262° West 463 533 34,000  Level FlightAware Transoceanic
Mon 11:58:00 AM 47.6908 -44.1963 262° West 463 533 34,000  Level FlightAware Transoceanic
Mon 11:59:00 AM 47.6731 -44.3857 262° West 463 533 34,000  Level FlightAware Transoceanic
Mon 12:00:00 PM 47.6551 -44.5750 262° West 463 533 34,000  Level FlightAware Transoceanic
Mon 12:01:00 PM 47.6368 -44.7642 262° West 463 533 34,000  Level FlightAware Transoceanic
Mon 12:02:00 PM 47.6182 -44.9533 262° West 463 533 34,000  Level FlightAware Transoceanic
Mon 12:03:00 PM 47.5993 -45.1422 261° West 463 533 34,000  Level FlightAware Transoceanic
Mon 12:04:00 PM 47.5801 -45.3310 261° West 463 533 34,000  Level FlightAware Transoceanic
Mon 12:05:00 PM 47.5605 -45.5196 261° West 463 533 34,000  Level FlightAware Transoceanic
Mon 12:06:00 PM 47.5407 -45.7081 261° West 463 533 34,000  Level FlightAware Transoceanic
Mon 12:07:00 PM 47.5205 -45.8965 261° West 463 533 34,000  Level FlightAware Transoceanic
Mon 12:08:00 PM 47.5000 -46.0847 261° West 463 533 34,000  Level FlightAware Transoceanic
Mon 12:09:00 PM 47.4793 -46.2727 261° West 463 533 34,000  Level FlightAware Transoceanic
Mon 12:10:00 PM 47.4582 -46.4606 261° West 463 533 34,000  Level FlightAware Transoceanic
Mon 12:11:00 PM 47.4368 -46.6484 260° West 463 533 34,000  Level FlightAware Transoceanic
Mon 12:12:00 PM 47.4151 -46.8360 260° West 463 533 34,000  Level FlightAware Transoceanic
Mon 12:13:00 PM 47.3931 -47.0235 260° West 463 533 34,000  Level FlightAware Transoceanic
Mon 12:14:00 PM 47.3708 -47.2108 260° West 463 533 34,000  Level FlightAware Transoceanic
Mon 12:15:00 PM 47.3482 -47.3979 260° West 463 533 34,000  Level FlightAware Transoceanic
Mon 12:16:00 PM 47.3253 -47.5849 260° West 463 533 34,000  Level FlightAware Transoceanic
Mon 12:17:00 PM 47.3021 -47.7717 260° West 463 533 34,000  Level FlightAware Transoceanic
Mon 12:18:00 PM 47.2786 -47.9583 259° West 463 533 34,000  Level FlightAware Transoceanic
Mon 12:19:00 PM 47.2547 -48.1448 259° West 463 533 34,000  Level FlightAware Transoceanic
Mon 12:20:00 PM 47.2306 -48.3311 259° West 463 533 34,000  Level FlightAware Transoceanic
Mon 12:21:00 PM 47.2062 -48.5173 259° West 463 533 34,000  Level FlightAware Transoceanic
Mon 12:22:00 PM 47.1815 -48.7032 259° West 463 533 34,000  Level FlightAware Transoceanic
Mon 12:23:00 PM 47.1564 -48.8890 259° West 463 533 34,000  Level FlightAware Transoceanic
Mon 12:24:00 PM 47.1311 -49.0746 259° West 463 533 34,000  Level FlightAware Transoceanic
Mon 12:25:00 PM 47.1055 -49.2601 258° West 463 533 34,000  Level FlightAware Transoceanic
Mon 12:26:00 PM 47.0796 -49.4453 258° West 463 533 34,000  Level FlightAware Transoceanic
Mon 12:27:00 PM 47.0533 -49.6304 258° West 463 533 34,000  Level FlightAware Transoceanic
Mon 12:27:37 PM 47.0660 -49.6290 258° West 455 524 34,000  Level FlightAware ADS-B
Mon 12:28:00 PM 47.0268 -49.8153 258° West 463 533 34,000  Level FlightAware Transoceanic
Mon 12:28:37 PM 47.0410 -49.8070 258° West 454 522 34,000  Level FlightAware ADS-B
Mon 12:29:17 PM 47.0270 -49.9080 259° West 454 522 34,000  Level FlightAware ADS-B
Mon 12:30:00 PM 47.0000 -50.0000 259° West 416 479 34,000  Level ETMS Enhanced Traffic Management System
Mon 12:30:07 PM 47.0100 -50.0370 259° West 454 522 34,000  Level FlightAware ADS-B
Mon 12:31:02 PM 46.9800 -50.2350 258° West 453 521 34,000  Level FlightAware ADS-B
Mon 12:31:37 PM 46.9670 -50.3350 259° West 453 521 34,000  Level FlightAware ADS-B
Mon 12:32:27 PM 46.9500 -50.4630 259° West 453 521 34,000  Level FlightAware ADS-B
Mon 12:33:07 PM 46.9370 -50.5660 260° West 453 521 34,000  Level FlightAware ADS-B
Mon 12:33:47 PM 46.9230 -50.6680 259° West 453 521 34,000  Level FlightAware ADS-B
Mon 12:34:27 PM 46.9090 -50.7710 259° West 453 521 34,000  Level FlightAware ADS-B
Mon 12:35:07 PM 46.8960 -50.8730 259° West 453 521 34,000  Level FlightAware ADS-B
Mon 12:35:52 PM 46.9470 -51.1230 260° West 456 525 34,000  Level FlightAware ADS-B
Mon 12:36:00 PM 46.8632 -51.0273 260° West  Level FlightAware Approximate
Mon 12:36:27 PM 46.9520 -51.2380 274° West 456 525 34,000  Level FlightAware ADS-B
Mon 12:37:22 PM 46.9570 -51.4030 273° West 449 517 34,500 568 Climbing FlightAware ADS-B
Mon 12:38:02 PM 46.9610 -51.5270 273° West 449 517 34,900 353 Climbing FlightAware ADS-B
Mon 12:38:47 PM 46.9650 -51.6620 273° West 450 518 35,000 71 Climbing FlightAware ADS-B
Mon 12:39:27 PM 46.9690 -51.7890 273° West 447 514 35,000  Level FlightAware ADS-B
Mon 12:40:07 PM 46.9720 -51.9070 272° West 444 511 35,000  Level FlightAware ADS-B
Mon 12:40:52 PM 46.9760 -52.0390 273° West 441 507 35,000  Level FlightAware ADS-B
Mon 12:41:32 PM 46.9790 -52.1600 272° West 440 506 35,000  Level FlightAware ADS-B
Mon 12:42:12 PM 46.9820 -52.2760 272° West 439 505 35,000  Level FlightAware ADS-B
Mon 12:42:57 PM 46.9850 -52.4140 272° West 439 505 35,000  Level FlightAware ADS-B
Mon 12:43:37 PM 46.9880 -52.5320 272° West 439 505 35,000  Level FlightAware ADS-B
Mon 12:44:22 PM 46.9920 -52.6630 273° West 439 505 35,000  Level FlightAware ADS-B
Mon 12:45:02 PM 46.9960 -52.7810 273° West 440 506 35,000  Level FlightAware ADS-B
Mon 12:45:42 PM 46.9990 -52.8940 272° West 440 506 35,000  Level FlightAware ADS-B
Mon 12:46:27 PM 47.0030 -53.0380 272° West 441 507 35,000  Level FlightAware ADS-B
Mon 12:47:07 PM 47.0050 -53.1500 272° West 442 509 35,000  Level FlightAware ADS-B
Mon 12:47:52 PM 47.0080 -53.2880 272° West 443 510 35,000  Level FlightAware ADS-B
Mon 12:48:32 PM 47.0090 -53.4080 271° West 444 511 35,000  Level FlightAware ADS-B
Mon 12:49:12 PM 47.0110 -53.5280 271° West 444 511 35,000  Level FlightAware ADS-B
Mon 12:49:57 PM 47.0130 -53.6640 271° West 443 510 35,000  Level FlightAware ADS-B
Mon 12:50:37 PM 47.0140 -53.7860 271° West 443 510 35,000  Level FlightAware ADS-B
Mon 12:51:22 PM 47.0150 -53.9180 271° West 443 510 35,000  Level FlightAware ADS-B
Mon 12:52:02 PM 47.0160 -54.0390 271° West 443 510 35,000  Level FlightAware ADS-B
Mon 12:52:42 PM 47.0170 -54.1550 271° West 443 510 35,000  Level FlightAware ADS-B
Mon 12:53:27 PM 47.0180 -54.2860 271° West 443 510 35,000  Level FlightAware ADS-B
Mon 12:54:07 PM 47.0190 -54.4100 271° West 442 509 35,000  Level FlightAware ADS-B
Mon 12:54:52 PM 47.0200 -54.5410 271° West 442 509 35,000  Level FlightAware ADS-B
Mon 12:55:32 PM 47.0200 -54.6660 270° West 441 507 35,000  Level FlightAware ADS-B
Mon 12:56:12 PM 47.0210 -54.7800 271° West 441 507 35,000  Level FlightAware ADS-B
Mon 12:56:57 PM 47.0210 -54.9160 270° West 441 507 35,000  Level FlightAware ADS-B
Mon 12:57:47 PM 47.0210 -55.0550 270° West 440 506 35,000  Level FlightAware ADS-B
Mon 12:58:27 PM 47.0210 -55.1760 270° West 439 505 35,000  Level FlightAware ADS-B
Mon 12:59:17 PM 47.0200 -55.3310 270° West 438 504 35,000  Level FlightAware ADS-B
Mon 12:59:57 PM 47.0200 -55.4420 270° West 437 503 35,000  Level FlightAware ADS-B
Mon 01:00:42 PM 47.0190 -55.5780 269° West 437 503 35,000  Level FlightAware ADS-B
Mon 01:01:07 PM 47.0190 -55.6460 270° West 437 503 35,000  Level FlightAware ADS-B
Mon 01:01:57 PM 47.0180 -55.7950 269° West 436 502 35,000  Level FlightAware ADS-B
Mon 01:02:37 PM 47.0180 -55.9110 270° West 437 503 35,000  Level FlightAware ADS-B
Mon 01:03:32 PM 47.0160 -56.0780 269° West 437 503 35,000  Level FlightAware ADS-B
Mon 01:04:17 PM 47.0150 -56.2140 269° West 438 504 35,000  Level FlightAware ADS-B
Mon 01:05:12 PM 47.0130 -56.3740 269° West 438 504 35,000  Level FlightAware ADS-B
Mon 01:05:52 PM 47.0120 -56.4960 269° West 438 504 35,000  Level FlightAware ADS-B
Mon 01:06:32 PM 47.0110 -56.6110 269° West 438 504 35,000  Level FlightAware ADS-B
Mon 01:07:17 PM 47.0090 -56.7460 269° West 439 505 35,000  Level FlightAware ADS-B
Mon 01:07:57 PM 47.0070 -56.8630 269° West 439 505 35,000  Level FlightAware ADS-B
Mon 01:08:32 PM 47.0060 -56.9600 269° West 439 505 35,000  Level FlightAware ADS-B
Mon 01:09:27 PM 47.0020 -57.1070 268° West 439 505 35,000  Level FlightAware ADS-B
Mon 01:10:07 PM 47.0000 -57.2080 268° West 439 505 35,000  Level FlightAware ADS-B
Mon 01:10:47 PM 46.9970 -57.3090 268° West 439 505 35,000  Level FlightAware ADS-B
Mon 01:11:27 PM 46.9950 -57.4100 268° West 439 505 35,000  Level FlightAware ADS-B
Mon 01:12:07 PM 46.9930 -57.5110 268° West 439 505 35,000  Level FlightAware ADS-B
Mon 01:12:57 PM 46.9900 -57.6380 268° West 439 505 35,000  Level FlightAware ADS-B
Mon 01:13:37 PM 46.9870 -57.7390 268° West 439 505 35,000  Level FlightAware ADS-B
Mon 01:14:17 PM 46.9850 -57.8400 268° West 439 505 35,000  Level FlightAware ADS-B
Mon 01:14:57 PM 46.9820 -57.9410 268° West 439 505 35,000  Level FlightAware ADS-B
Mon 01:15:37 PM 46.9800 -58.0420 268° West 439 505 35,000  Level FlightAware ADS-B
Mon 01:16:32 PM 46.9750 -58.3690 269° West 426 490 35,000  Level FlightAware ADS-B
Mon 01:17:22 PM 46.9720 -58.5180 268° West 426 490 35,000  Level FlightAware ADS-B
Mon 01:18:07 PM 46.9680 -58.6440 267° West 425 489 35,000  Level FlightAware ADS-B
Mon 01:18:47 PM 46.9640 -58.7610 267° West 426 490 35,000  Level FlightAware ADS-B
Mon 01:19:27 PM 46.9610 -58.8770 268° West 426 490 35,000  Level FlightAware ADS-B
Mon 01:20:12 PM 46.9570 -59.0090 268° West 428 493 35,000  Level FlightAware ADS-B
Mon 01:20:52 PM 46.9530 -59.1210 267° West 428 493 35,000  Level FlightAware ADS-B
Mon 01:21:32 PM 46.9490 -59.2390 267° West 429 494 35,000  Level FlightAware ADS-B
Mon 01:22:17 PM 46.9440 -59.3690 267° West 431 496 35,000  Level FlightAware ADS-B
Mon 01:22:57 PM 46.9400 -59.4830 267° West 432 497 35,000  Level FlightAware ADS-B
Mon 01:23:37 PM 46.9350 -59.6000 266° West 433 498 35,000  Level FlightAware ADS-B
Mon 01:24:22 PM 46.9300 -59.7350 267° West 433 498 35,000  Level FlightAware ADS-B
Mon 01:25:02 PM 46.9250 -59.8530 266° West 434 499 35,000  Level FlightAware ADS-B
Mon 01:25:47 PM 46.9200 -59.9800 267° West 437 503 35,000  Level FlightAware ADS-B
Mon 01:26:27 PM 46.9150 -60.1000 267° West 443 510 35,000  Level FlightAware ADS-B
Mon 01:27:07 PM 46.9100 -60.2190 267° West 446 513 35,000  Level FlightAware ADS-B
Mon 01:27:52 PM 46.9040 -60.3590 266° West 448 516 35,000  Level FlightAware ADS-B
Mon 01:28:47 PM 46.8970 -60.5090 266° West 449 517 35,000  Level FlightAware ADS-B
Mon 01:29:27 PM 46.8900 -60.6440 266° West 452 520 35,000  Level FlightAware ADS-B
Mon 01:30:12 PM 46.8830 -60.7820 266° West 454 522 35,000  Level FlightAware ADS-B
Mon 01:31:07 PM 46.8750 -60.9430 266° West 453 521 35,000  Level FlightAware ADS-B
Mon 01:31:47 PM 46.8690 -61.0690 266° West 453 521 35,000  Level FlightAware ADS-B
Mon 01:32:27 PM 46.8630 -61.1880 266° West 453 521 35,000  Level FlightAware ADS-B
Mon 01:33:12 PM 46.8550 -61.3230 265° West 453 521 35,000  Level FlightAware ADS-B
Mon 01:33:52 PM 46.8490 -61.4270 265° West 453 521 35,000  Level FlightAware ADS-B
Mon 01:34:32 PM 46.8430 -61.5310 265° West 453 521 35,000  Level FlightAware ADS-B
Mon 01:35:12 PM 46.8370 -61.6340 265° West 453 521 35,000  Level FlightAware ADS-B
Mon 01:36:02 PM 46.8290 -61.7640 265° West 453 521 35,000  Level FlightAware ADS-B
Mon 01:36:42 PM 46.8230 -61.8680 265° West 453 521 35,000  Level FlightAware ADS-B
Mon 01:37:22 PM 46.8160 -61.9720 264° West 453 521 35,000  Level FlightAware ADS-B
Mon 01:38:07 PM 46.8050 -62.2250 266° West 448 516 35,000  Level FlightAware ADS-B
Mon 01:38:47 PM 46.7980 -62.3320 265° West 448 516 35,000  Level FlightAware ADS-B
Mon 01:39:27 PM 46.7910 -62.4340 264° West 448 516 35,000  Level FlightAware ADS-B
Mon 01:40:07 PM 46.7830 -62.5360 264° West 448 516 35,000  Level FlightAware ADS-B
Mon 01:40:57 PM 46.7740 -62.6640 264° West 448 516 35,000  Level FlightAware ADS-B
Mon 01:41:37 PM 46.7670 -62.7670 264° West 448 516 35,000  Level FlightAware ADS-B
Mon 01:42:17 PM 46.7590 -62.8690 264° West 448 516 35,000  Level FlightAware ADS-B
Mon 01:42:57 PM 46.7520 -62.9710 264° West 448 516 35,000  Level FlightAware ADS-B
Mon 01:43:37 PM 46.7440 -63.0740 264° West 448 516 35,000  Level FlightAware ADS-B
Mon 01:44:27 PM 46.7350 -63.2010 264° West 448 516 35,000  Level FlightAware ADS-B
Mon 01:45:07 PM 46.7280 -63.3040 264° West 448 516 35,000  Level FlightAware ADS-B
Mon 01:45:47 PM 46.7210 -63.4060 264° West 448 516 35,000  Level FlightAware ADS-B
Mon 01:46:27 PM 46.7130 -63.5080 264° West 448 516 35,000  Level FlightAware ADS-B
Mon 01:47:07 PM 46.7060 -63.6100 264° West 448 516 35,000  Level FlightAware ADS-B
Mon 01:47:47 PM 46.6980 -63.7130 264° West 448 516 35,000  Level FlightAware ADS-B
Mon 01:48:19 PM 46.6667 -64.0000 264° West 440 506 35,000  Level Moncton Center
Mon 01:49:19 PM 46.6500 -64.1833 263° West 440 506 35,000  Level Moncton Center
Mon 01:50:19 PM 46.6333 -64.3667 263° West 440 506 35,000  Level Moncton Center
Mon 01:51:19 PM 46.6167 -64.5500 263° West 440 506 35,000  Level Moncton Center
Mon 01:52:19 PM 46.6000 -64.7167 262° West 440 506 35,000  Level Moncton Center
Mon 01:53:19 PM 46.6000 -64.8833 270° West 430 495 35,000  Level Moncton Center
Mon 01:54:19 PM 46.5833 -65.0500 262° West 430 495 35,000  Level Moncton Center
Mon 01:55:19 PM 46.5667 -65.2167 262° West 430 495 35,000  Level Moncton Center
Mon 01:56:19 PM 46.5333 -65.4167 256° West 430 495 35,000  Level Moncton Center
Mon 01:57:19 PM 46.5167 -65.5833 262° West 430 495 35,000  Level Moncton Center
Mon 01:58:19 PM 46.5000 -65.7667 263° West 430 495 35,000  Level Moncton Center
Mon 01:59:19 PM 46.5000 -65.9333 270° West 430 495 35,000  Level Moncton Center
Mon 02:00:19 PM 46.4833 -66.1000 262° West 430 495 35,000  Level Moncton Center
Mon 02:01:19 PM 46.4667 -66.2667 262° West 430 495 35,000  Level Moncton Center
Mon 02:02:19 PM 46.4500 -66.4333 262° West 430 495 35,000  Level Moncton Center
Mon 02:03:19 PM 46.4167 -66.6000 254° West 430 495 35,000  Level Moncton Center
Mon 02:04:19 PM 46.4000 -66.7833 263° West 430 495 35,000  Level Moncton Center
Mon 02:05:19 PM 46.4000 -66.9500 270° West 430 495 35,000  Level Moncton Center
Mon 02:11:02 PM 46.2990 -67.9610 270° West 436 502 35,000  Level FlightAware ADS-B
Mon 02:11:42 PM 46.2850 -68.0750 260° West 437 503 35,000  Level FlightAware ADS-B
Mon 02:12:27 PM 46.2700 -68.2030 260° West 437 503 35,000  Level FlightAware ADS-B
Mon 02:13:07 PM 46.2560 -68.3180 260° West 436 502 35,000  Level FlightAware ADS-B
Mon 02:13:47 PM 46.2420 -68.4320 260° West 436 502 35,000  Level FlightAware ADS-B
Mon 02:14:32 PM 46.2270 -68.5600 260° West 436 502 35,000  Level FlightAware ADS-B
Mon 02:15:12 PM 46.2130 -68.6740 260° West 437 503 35,000  Level FlightAware ADS-B
Mon 02:15:57 PM 46.1970 -68.8030 260° West 437 503 35,000  Level FlightAware ADS-B
Mon 02:16:37 PM 46.1820 -68.9160 259° West 437 503 35,000  Level FlightAware ADS-B
Mon 02:17:17 PM 46.1680 -69.0310 260° West 437 503 35,000  Level FlightAware ADS-B
Mon 02:18:02 PM 46.1520 -69.1600 260° West 437 503 35,000  Level FlightAware ADS-B
Mon 02:18:42 PM 46.1370 -69.2740 259° West 437 503 35,000  Level FlightAware ADS-B
Mon 02:19:27 PM 46.1210 -69.4020 260° West 437 503 35,000  Level FlightAware ADS-B
Mon 02:20:07 PM 46.1060 -69.5160 259° West 438 504 35,000  Level FlightAware ADS-B
Mon 02:20:47 PM 46.0910 -69.6310 259° West 438 504 35,000  Level FlightAware ADS-B
Mon 02:21:32 PM 46.0740 -69.7600 259° West 439 505 35,000  Level FlightAware ADS-B
Mon 02:22:12 PM 46.0590 -69.8740 259° West 440 506 35,000  Level FlightAware ADS-B
Mon 02:22:52 PM 46.0440 -69.9880 259° West 441 507 35,000  Level FlightAware ADS-B
Mon 02:23:52 PM 46.0220 -70.1520 259° West 441 507 35,000  Level FlightAware ADS-B
Mon 02:24:32 PM 46.0060 -70.2680 259° West 442 509 35,000  Level FlightAware ADS-B
Mon 02:25:17 PM 45.9880 -70.3990 259° West 443 510 35,000  Level FlightAware ADS-B
Mon 02:25:57 PM 45.9740 -70.5110 260° West 443 510 35,000  Level FlightAware ADS-B
Mon 02:26:42 PM 45.9620 -70.6430 263° West 444 511 35,000  Level FlightAware ADS-B
Mon 02:27:17 PM 45.9530 -70.7440 263° West 445 512 35,000 -225 Level FlightAware ADS-B
Mon 02:28:02 PM 45.9390 -70.8770 261° West 443 510 34,700 -1,129 Descending FlightAware ADS-B
Mon 02:28:42 PM 45.9270 -70.9990 262° West 450 518 33,400 -1,733 Descending FlightAware ADS-B
Mon 02:29:32 PM 45.9130 -71.1340 262° West 452 520 32,100 -1,533 Descending FlightAware ADS-B
Mon 02:30:12 PM 45.9010 -71.2570 262° West 453 521 31,100 -1,575 Descending FlightAware ADS-B
Mon 02:30:52 PM 45.8880 -71.3790 261° West 452 520 30,000 -1,271 Descending FlightAware ADS-B
Mon 02:31:37 PM 45.8740 -71.5090 261° West 446 513 29,300 -1,059 Descending FlightAware ADS-B
Mon 02:32:17 PM 45.8610 -71.6360 262° West 441 507 28,500 -1,725 Descending FlightAware ADS-B
Mon 02:32:57 PM 45.8490 -71.7460 261° West 433 498 27,000 -2,250 Descending FlightAware ADS-B
Mon 02:33:37 PM 45.8370 -71.8560 261° West 422 486 25,500 -2,471 Descending FlightAware ADS-B
Mon 02:34:22 PM 45.8230 -71.9850 261° West 414 476 23,500 -2,600 Descending FlightAware ADS-B
Mon 02:35:07 PM 45.8090 -72.1090 261° West 407 468 21,600 -2,259 Descending FlightAware ADS-B
Mon 02:35:47 PM 45.8000 -72.2100 263° West 394 453 20,300 -2,047 Descending FlightAware ADS-B
Mon 02:36:32 PM 45.7890 -72.3250 262° West 384 442 18,700 -2,118 Descending FlightAware ADS-B
Mon 02:37:12 PM 45.7790 -72.4260 262° West 377 434 17,300 -1,950 Descending FlightAware ADS-B
Mon 02:37:52 PM 45.7690 -72.5220 262° West 369 425 16,100 -1,835 Descending FlightAware ADS-B
Mon 02:38:37 PM 45.7580 -72.6320 262° West 360 414 14,700 -1,765 Descending FlightAware ADS-B
Mon 02:39:17 PM 45.7490 -72.7250 262° West 350 403 13,600 -1,725 Descending FlightAware ADS-B
Mon 02:39:57 PM 45.7400 -72.8150 262° West 341 392 12,400 -1,765 Descending FlightAware ADS-B
Mon 02:40:42 PM 45.7300 -72.9120 262° West 329 379 11,100 -1,412 Descending FlightAware ADS-B
Mon 02:41:22 PM 45.7210 -72.9970 261° West 308 354 10,400 -1,114 Descending FlightAware ADS-B
Mon 02:41:52 PM 45.7160 -73.0560 263° West 286 329 9,800 -1,333 Descending FlightAware ADS-B
Mon 02:42:07 PM 45.7130 -73.0850 262° West 274 315 9,400 -1,333 Descending FlightAware ADS-B
Mon 02:42:37 PM 45.7070 -73.1370 261° West 253 291 8,800 -1,309 Descending FlightAware ADS-B
Mon 02:43:02 PM 45.7010 -73.1760 258° West 249 287 8,200 -1,560 Descending FlightAware ADS-B
Mon 02:43:27 PM 45.6950 -73.2140 257° West 249 287 7,500 -1,418 Descending FlightAware ADS-B
Mon 02:43:57 PM 45.6870 -73.2630 257° West 247 284 6,900 -1,200 Descending FlightAware ADS-B
Mon 02:44:27 PM 45.6800 -73.3110 258° West 243 280 6,300 -982 Descending FlightAware ADS-B
Mon 02:44:52 PM 45.6730 -73.3510 256° West 231 266 6,000 -873 Descending FlightAware ADS-B
Mon 02:45:22 PM 45.6660 -73.3940 257° West 225 259 5,500 -900 Descending FlightAware ADS-B
Mon 02:45:52 PM 45.6590 -73.4350 256° West 210 242 5,100 -655 Descending FlightAware ADS-B
Mon 02:46:17 PM 45.6540 -73.4670 257° West 190 219 4,900 -450 Descending FlightAware ADS-B
Mon 02:46:32 PM 45.6510 -73.4860 257° West 173 199 4,800 -267 Descending FlightAware ADS-B
Mon 02:47:02 PM 45.6470 -73.5160 259° West 152 175 4,700 -764 Descending FlightAware ADS-B
Mon 02:47:27 PM 45.6430 -73.5400 257° West 155 178 4,100 -1,200 Descending FlightAware ADS-B
Mon 02:47:42 PM 45.6380 -73.5550 245° Southwest 148 170 3,900 -400 Descending FlightAware ADS-B
Mon 02:47:57 PM 45.6320 -73.5650 229° Southwest 149 171 3,900 -450 Level FlightAware ADS-B
Mon 02:48:22 PM 45.6190 -73.5830 224° Southwest 156 180 3,600 -764 Descending FlightAware ADS-B
Mon 02:48:52 PM 45.6030 -73.6040 223° Southwest 153 176 3,200 -800 Descending FlightAware ADS-B
Mon 02:49:22 PM 45.5890 -73.6230 224° Southwest 154 177 2,800 -840 Descending FlightAware ADS-B
Mon 02:49:42 PM 45.5780 -73.6370 222° Southwest 152 175 2,500 -873 Descending FlightAware ADS-B
Mon 02:50:17 PM 45.5600 -73.6620 224° Southwest 154 177 2,000 -800 Descending FlightAware ADS-B
Mon 02:50:42 PM 45.5470 -73.6790 222° Southwest 151 174 1,700 -764 Descending FlightAware ADS-B
Mon 02:51:12 PM 45.5310 -73.6990 221° Southwest 142 163 1,300 -800 Descending FlightAware ADS-B
Mon 02:51:27 PM 45.5240 -73.7090 225° Southwest 142 163 1,100 -750 Descending FlightAware ADS-B
Mon 02:51:52 PM 45.5120 -73.7250 223° Southwest 145 167 800 -764 Descending FlightAware ADS-B
Mon 02:52:22 PM 45.4990 -73.7420 223° Southwest 146 168 400 -764 Descending FlightAware ADS-B
Mon 02:52:47 PM 45.4850 -73.7610 224° Southwest 151 174 100 -720 Descending FlightAware ADS-B

Login

Don't have an account? Register now (free) for customized features, flight alerts, and more!